sensor_id;sensor_type;location;lat;lon;timestamp;P1;durP1;ratioP1;P2;durP2;ratioP2
1699;SDS011;847;48.058;7.810;2023-01-23T02:41:10;15.52;;;11.07;;
1699;SDS011;847;48.058;7.810;2023-01-23T04:07:56;18.60;;;14.02;;
1699;SDS011;847;48.058;7.810;2023-01-23T06:04:21;8.37;;;7.43;;
1699;SDS011;847;48.058;7.810;2023-01-23T06:06:50;9.53;;;6.87;;
1699;SDS011;847;48.058;7.810;2023-01-23T06:09:19;9.57;;;6.70;;
1699;SDS011;847;48.058;7.810;2023-01-23T06:11:46;11.47;;;7.30;;
1699;SDS011;847;48.058;7.810;2023-01-23T06:14:13;7.68;;;6.82;;
1699;SDS011;847;48.058;7.810;2023-01-23T06:16:42;8.97;;;7.57;;
1699;SDS011;847;48.058;7.810;2023-01-23T06:19:10;10.13;;;7.70;;
1699;SDS011;847;48.058;7.810;2023-01-23T06:21:42;8.10;;;7.30;;
1699;SDS011;847;48.058;7.810;2023-01-23T06:24:10;10.47;;;7.40;;
1699;SDS011;847;48.058;7.810;2023-01-23T06:26:37;8.63;;;6.53;;
1699;SDS011;847;48.058;7.810;2023-01-23T06:29:05;7.90;;;5.33;;
1699;SDS011;847;48.058;7.810;2023-01-23T06:31:33;6.07;;;4.45;;
1699;SDS011;847;48.058;7.810;2023-01-23T06:34:01;5.47;;;4.18;;
1699;SDS011;847;48.058;7.810;2023-01-23T06:36:29;5.68;;;4.13;;
1699;SDS011;847;48.058;7.810;2023-01-23T06:41:34;3.88;;;3.58;;
1699;SDS011;847;48.058;7.810;2023-01-23T06:44:01;4.37;;;3.50;;
1699;SDS011;847;48.058;7.810;2023-01-23T06:46:28;4.75;;;3.88;;
1699;SDS011;847;48.058;7.810;2023-01-23T06:48:55;4.78;;;4.30;;
1699;SDS011;847;48.058;7.810;2023-01-23T06:51:22;5.60;;;3.85;;
1699;SDS011;847;48.058;7.810;2023-01-23T06:53:48;4.00;;;3.50;;
1699;SDS011;847;48.058;7.810;2023-01-23T06:56:15;4.70;;;3.83;;
1699;SDS011;847;48.058;7.810;2023-01-23T06:58:44;5.50;;;3.77;;
1699;SDS011;847;48.058;7.810;2023-01-23T07:01:13;3.70;;;3.40;;
1699;SDS011;847;48.058;7.810;2023-01-23T07:06:16;4.53;;;3.60;;
1699;SDS011;847;48.058;7.810;2023-01-23T07:08:43;3.90;;;3.50;;
1699;SDS011;847;48.058;7.810;2023-01-23T07:11:12;5.10;;;3.80;;
1699;SDS011;847;48.058;7.810;2023-01-23T07:21:29;5.07;;;3.97;;
1699;SDS011;847;48.058;7.810;2023-01-23T08:05:23;4.40;;;3.37;;
1699;SDS011;847;48.058;7.810;2023-01-23T08:07:50;7.30;;;3.60;;
1699;SDS011;847;48.058;7.810;2023-01-23T08:20:40;4.80;;;4.10;;
1699;SDS011;847;48.058;7.810;2023-01-23T08:28:18;4.83;;;3.50;;
1699;SDS011;847;48.058;7.810;2023-01-23T08:43:46;5.30;;;4.27;;
1699;SDS011;847;48.058;7.810;2023-01-23T09:19:54;6.10;;;4.30;;
1699;SDS011;847;48.058;7.810;2023-01-23T09:38:41;8.03;;;6.27;;
1699;SDS011;847;48.058;7.810;2023-01-23T09:41:09;6.20;;;5.10;;
1699;SDS011;847;48.058;7.810;2023-01-23T09:48:56;9.80;;;5.47;;
1699;SDS011;847;48.058;7.810;2023-01-23T10:17:24;8.67;;;5.90;;
1699;SDS011;847;48.058;7.810;2023-01-23T10:19:59;6.53;;;5.57;;
1699;SDS011;847;48.058;7.810;2023-01-23T10:22:40;7.80;;;5.33;;
1699;SDS011;847;48.058;7.810;2023-01-23T10:25:13;6.87;;;5.60;;
1699;SDS011;847;48.058;7.810;2023-01-23T10:27:45;6.47;;;5.67;;
1699;SDS011;847;48.058;7.810;2023-01-23T10:30:16;12.80;;;8.55;;
1699;SDS011;847;48.058;7.810;2023-01-23T10:32:55;10.37;;;8.17;;
1699;SDS011;847;48.058;7.810;2023-01-23T10:35:24;9.55;;;7.00;;
1699;SDS011;847;48.058;7.810;2023-01-23T10:37:59;12.67;;;7.80;;
1699;SDS011;847;48.058;7.810;2023-01-23T10:40:27;10.67;;;8.30;;
1699;SDS011;847;48.058;7.810;2023-01-23T10:43:12;10.33;;;7.30;;
1699;SDS011;847;48.058;7.810;2023-01-23T10:45:40;12.03;;;7.17;;
1699;SDS011;847;48.058;7.810;2023-01-23T10:48:28;9.80;;;6.67;;
1699;SDS011;847;48.058;7.810;2023-01-23T10:53:58;9.03;;;7.20;;
1699;SDS011;847;48.058;7.810;2023-01-23T10:56:29;7.33;;;6.20;;
1699;SDS011;847;48.058;7.810;2023-01-23T10:58:57;9.07;;;5.90;;
1699;SDS011;847;48.058;7.810;2023-01-23T11:01:27;8.23;;;5.23;;
1699;SDS011;847;48.058;7.810;2023-01-23T11:03:57;7.87;;;6.23;;
1699;SDS011;847;48.058;7.810;2023-01-23T11:06:36;7.93;;;5.63;;
1699;SDS011;847;48.058;7.810;2023-01-23T11:09:03;8.00;;;5.50;;
1699;SDS011;847;48.058;7.810;2023-01-23T11:11:43;7.50;;;6.10;;
1699;SDS011;847;48.058;7.810;2023-01-23T11:14:23;6.60;;;5.27;;
1699;SDS011;847;48.058;7.810;2023-01-23T11:16:57;7.03;;;5.57;;
1699;SDS011;847;48.058;7.810;2023-01-23T11:19:27;8.60;;;5.63;;
1699;SDS011;847;48.058;7.810;2023-01-23T11:21:57;7.37;;;5.30;;
1699;SDS011;847;48.058;7.810;2023-01-23T11:24:29;8.17;;;5.27;;
1699;SDS011;847;48.058;7.810;2023-01-23T11:26:58;7.37;;;5.43;;
1699;SDS011;847;48.058;7.810;2023-01-23T11:29:27;11.23;;;5.63;;
1699;SDS011;847;48.058;7.810;2023-01-23T11:31:56;6.80;;;5.27;;
1699;SDS011;847;48.058;7.810;2023-01-23T11:34:29;8.40;;;6.63;;
1699;SDS011;847;48.058;7.810;2023-01-23T11:37:03;6.83;;;6.10;;
1699;SDS011;847;48.058;7.810;2023-01-23T11:39:43;7.03;;;5.37;;
1699;SDS011;847;48.058;7.810;2023-01-23T11:42:13;10.73;;;6.00;;
1699;SDS011;847;48.058;7.810;2023-01-23T11:44:42;7.83;;;5.47;;
1699;SDS011;847;48.058;7.810;2023-01-23T11:47:14;7.80;;;6.30;;
1699;SDS011;847;48.058;7.810;2023-01-23T11:50:16;7.00;;;5.03;;
1699;SDS011;847;48.058;7.810;2023-01-23T11:52:56;8.47;;;5.77;;
1699;SDS011;847;48.058;7.810;2023-01-23T11:55:35;7.20;;;5.50;;
1699;SDS011;847;48.058;7.810;2023-01-23T11:58:19;8.50;;;5.90;;
1699;SDS011;847;48.058;7.810;2023-01-23T12:01:00;9.03;;;5.37;;
1699;SDS011;847;48.058;7.810;2023-01-23T12:06:36;9.53;;;6.60;;
1699;SDS011;847;48.058;7.810;2023-01-23T12:09:11;7.40;;;5.07;;
1699;SDS011;847;48.058;7.810;2023-01-23T12:11:44;6.93;;;5.40;;
1699;SDS011;847;48.058;7.810;2023-01-23T12:14:20;8.43;;;5.90;;
1699;SDS011;847;48.058;7.810;2023-01-23T12:17:01;15.13;;;6.20;;
1699;SDS011;847;48.058;7.810;2023-01-23T12:19:49;10.30;;;7.20;;
1699;SDS011;847;48.058;7.810;2023-01-23T12:22:29;7.53;;;6.20;;
1699;SDS011;847;48.058;7.810;2023-01-23T12:25:04;8.33;;;5.40;;
1699;SDS011;847;48.058;7.810;2023-01-23T12:27:42;5.53;;;4.90;;
1699;SDS011;847;48.058;7.810;2023-01-23T12:30:11;7.53;;;5.70;;
1699;SDS011;847;48.058;7.810;2023-01-23T12:32:58;13.60;;;6.27;;
1699;SDS011;847;48.058;7.810;2023-01-23T12:35:40;6.80;;;5.37;;
1699;SDS011;847;48.058;7.810;2023-01-23T12:38:27;10.63;;;5.70;;
1699;SDS011;847;48.058;7.810;2023-01-23T13:09:31;8.30;;;6.10;;
1699;SDS011;847;48.058;7.810;2023-01-23T13:40:35;9.97;;;7.20;;
1699;SDS011;847;48.058;7.810;2023-01-23T15:03:38;15.77;;;9.80;;
1699;SDS011;847;48.058;7.810;2023-01-23T15:47:41;17.37;;;10.47;;
1699;SDS011;847;48.058;7.810;2023-01-23T16:39:21;18.53;;;9.80;;
1699;SDS011;847;48.058;7.810;2023-01-23T16:41:52;12.97;;;9.50;;
1699;SDS011;847;48.058;7.810;2023-01-23T16:44:20;16.83;;;9.63;;
1699;SDS011;847;48.058;7.810;2023-01-23T16:54:35;17.50;;;10.97;;
1699;SDS011;847;48.058;7.810;2023-01-23T17:02:15;12.77;;;8.87;;
1699;SDS011;847;48.058;7.810;2023-01-23T17:09:57;17.20;;;9.93;;
1699;SDS011;847;48.058;7.810;2023-01-23T17:12:34;16.17;;;10.87;;
1699;SDS011;847;48.058;7.810;2023-01-23T17:22:48;16.30;;;9.53;;
1699;SDS011;847;48.058;7.810;2023-01-23T17:25:17;17.50;;;11.63;;
1699;SDS011;847;48.058;7.810;2023-01-23T17:27:46;16.80;;;10.00;;
1699;SDS011;847;48.058;7.810;2023-01-23T17:32:51;14.80;;;9.70;;
1699;SDS011;847;48.058;7.810;2023-01-23T17:35:21;15.80;;;9.83;;
1699;SDS011;847;48.058;7.810;2023-01-23T17:37:58;16.10;;;10.87;;
1699;SDS011;847;48.058;7.810;2023-01-23T17:40:30;21.20;;;12.23;;
1699;SDS011;847;48.058;7.810;2023-01-23T17:42:59;16.47;;;10.17;;
1699;SDS011;847;48.058;7.810;2023-01-23T17:45:29;13.37;;;9.40;;
1699;SDS011;847;48.058;7.810;2023-01-23T17:47:57;17.50;;;11.93;;
1699;SDS011;847;48.058;7.810;2023-01-23T17:58:13;18.83;;;11.50;;
1699;SDS011;847;48.058;7.810;2023-01-23T18:00:41;18.73;;;10.63;;
1699;SDS011;847;48.058;7.810;2023-01-23T18:03:11;14.47;;;10.13;;
1699;SDS011;847;48.058;7.810;2023-01-23T18:23:48;18.23;;;13.20;;
1699;SDS011;847;48.058;7.810;2023-01-23T18:41:52;14.70;;;11.20;;
1699;SDS011;847;48.058;7.810;2023-01-23T18:57:43;15.70;;;10.40;;
1699;SDS011;847;48.058;7.810;2023-01-23T19:39:17;14.13;;;10.57;;
1699;SDS011;847;48.058;7.810;2023-01-23T19:41:44;17.47;;;11.17;;
1699;SDS011;847;48.058;7.810;2023-01-23T19:54:35;16.40;;;10.37;;
1699;SDS011;847;48.058;7.810;2023-01-23T20:21:58;16.17;;;12.30;;
1699;SDS011;847;48.058;7.810;2023-01-23T20:24:24;17.70;;;11.37;;
1699;SDS011;847;48.058;7.810;2023-01-23T20:26:51;13.93;;;10.80;;
1699;SDS011;847;48.058;7.810;2023-01-23T20:37:01;15.17;;;10.90;;
1699;SDS011;847;48.058;7.810;2023-01-23T21:30:26;16.87;;;11.87;;
1699;SDS011;847;48.058;7.810;2023-01-23T21:35:28;15.43;;;9.87;;
1699;SDS011;847;48.058;7.810;2023-01-23T21:37:55;15.33;;;11.13;;
1699;SDS011;847;48.058;7.810;2023-01-23T21:45:35;16.97;;;9.93;;
1699;SDS011;847;48.058;7.810;2023-01-23T22:03:35;13.70;;;10.17;;
1699;SDS011;847;48.058;7.810;2023-01-23T22:13:47;15.07;;;10.47;;
1699;SDS011;847;48.058;7.810;2023-01-23T22:26:37;12.67;;;9.73;;
1699;SDS011;847;48.058;7.810;2023-01-23T22:29:04;13.93;;;9.67;;
1699;SDS011;847;48.058;7.810;2023-01-23T22:31:31;14.37;;;10.80;;
1699;SDS011;847;48.058;7.810;2023-01-23T22:41:45;13.93;;;10.20;;
1699;SDS011;847;48.058;7.810;2023-01-23T22:44:14;13.57;;;9.93;;
1699;SDS011;847;48.058;7.810;2023-01-23T22:46:41;14.57;;;9.97;;
1699;SDS011;847;48.058;7.810;2023-01-23T22:49:08;15.00;;;9.53;;
1699;SDS011;847;48.058;7.810;2023-01-23T22:51:35;13.20;;;9.13;;
1699;SDS011;847;48.058;7.810;2023-01-23T22:54:02;15.60;;;10.63;;
1699;SDS011;847;48.058;7.810;2023-01-23T22:56:31;13.43;;;10.17;;
1699;SDS011;847;48.058;7.810;2023-01-23T22:59:00;17.07;;;10.87;;
1699;SDS011;847;48.058;7.810;2023-01-23T23:01:27;16.00;;;9.77;;
1699;SDS011;847;48.058;7.810;2023-01-23T23:03:57;14.73;;;9.70;;
1699;SDS011;847;48.058;7.810;2023-01-23T23:06:25;16.60;;;10.00;;
1699;SDS011;847;48.058;7.810;2023-01-23T23:08:53;14.07;;;10.03;;
1699;SDS011;847;48.058;7.810;2023-01-23T23:11:24;16.73;;;10.77;;
1699;SDS011;847;48.058;7.810;2023-01-23T23:13:54;14.10;;;10.83;;
1699;SDS011;847;48.058;7.810;2023-01-23T23:16:25;15.23;;;10.03;;
1699;SDS011;847;48.058;7.810;2023-01-23T23:18:56;15.47;;;10.10;;
1699;SDS011;847;48.058;7.810;2023-01-23T23:21:26;14.47;;;10.07;;
1699;SDS011;847;48.058;7.810;2023-01-23T23:23:57;14.07;;;9.93;;
1699;SDS011;847;48.058;7.810;2023-01-23T23:26:25;15.60;;;10.70;;
1699;SDS011;847;48.058;7.810;2023-01-23T23:28:58;15.87;;;10.77;;
1699;SDS011;847;48.058;7.810;2023-01-23T23:31:28;15.90;;;11.17;;
1699;SDS011;847;48.058;7.810;2023-01-23T23:33:55;17.00;;;12.17;;
1699;SDS011;847;48.058;7.810;2023-01-23T23:36:23;13.73;;;9.70;;
1699;SDS011;847;48.058;7.810;2023-01-23T23:38:54;17.07;;;11.07;;
1699;SDS011;847;48.058;7.810;2023-01-23T23:41:21;15.20;;;11.05;;
1699;SDS011;847;48.058;7.810;2023-01-23T23:43:48;18.23;;;11.50;;
1699;SDS011;847;48.058;7.810;2023-01-23T23:46:16;16.93;;;11.40;;
1699;SDS011;847;48.058;7.810;2023-01-23T23:48:48;17.67;;;11.63;;
1699;SDS011;847;48.058;7.810;2023-01-23T23:51:16;16.03;;;10.37;;
1699;SDS011;847;48.058;7.810;2023-01-23T23:53:44;17.27;;;11.23;;
1699;SDS011;847;48.058;7.810;2023-01-23T23:56:16;19.38;;;12.35;;
1699;SDS011;847;48.058;7.810;2023-01-23T23:58:46;15.00;;;11.53;;
